sensor_id;sensor_type;location;lat;lon;timestamp;pressure;altitude;pressure_sealevel;temperature
73685;BMP280;61985;51.070;14.064;2023-03-05T00:01:23;98538.00;;;1.31
73685;BMP280;61985;51.070;14.064;2023-03-05T00:03:49;98532.97;;;1.22
73685;BMP280;61985;51.070;14.064;2023-03-05T00:06:17;98529.53;;;1.22
73685;BMP280;61985;51.070;14.064;2023-03-05T00:08:42;98536.38;;;1.23
73685;BMP280;61985;51.070;14.064;2023-03-05T00:11:09;98535.91;;;1.17
73685;BMP280;61985;51.070;14.064;2023-03-05T00:13:36;98526.44;;;1.16
73685;BMP280;61985;51.070;14.064;2023-03-05T00:16:03;98535.16;;;1.17
73685;BMP280;61985;51.070;14.064;2023-03-05T00:18:29;98527.91;;;1.14
73685;BMP280;61985;51.070;14.064;2023-03-05T00:20:54;98524.16;;;1.15
73685;BMP280;61985;51.070;14.064;2023-03-05T00:23:19;98534.06;;;1.18
73685;BMP280;61985;51.070;14.064;2023-03-05T00:25:45;98519.63;;;1.19
73685;BMP280;61985;51.070;14.064;2023-03-05T00:28:11;98515.03;;;1.16
73685;BMP280;61985;51.070;14.064;2023-03-05T00:30:37;98515.41;;;1.14
73685;BMP280;61985;51.070;14.064;2023-03-05T00:33:02;98519.19;;;1.13
73685;BMP280;61985;51.070;14.064;2023-03-05T00:35:28;98513.88;;;1.13
73685;BMP280;61985;51.070;14.064;2023-03-05T00:37:53;98501.38;;;1.14
73685;BMP280;61985;51.070;14.064;2023-03-05T00:40:19;98504.38;;;1.12
73685;BMP280;61985;51.070;14.064;2023-03-05T00:42:44;98501.34;;;1.10
73685;BMP280;61985;51.070;14.064;2023-03-05T00:45:11;98494.44;;;1.05
73685;BMP280;61985;51.070;14.064;2023-03-05T00:47:36;98494.44;;;1.05
73685;BMP280;61985;51.070;14.064;2023-03-05T00:50:03;98485.28;;;1.03
73685;BMP280;61985;51.070;14.064;2023-03-05T00:52:29;98485.06;;;1.12
73685;BMP280;61985;51.070;14.064;2023-03-05T00:54:54;98490.25;;;1.04
73685;BMP280;61985;51.070;14.064;2023-03-05T00:57:20;98490.97;;;1.01
73685;BMP280;61985;51.070;14.064;2023-03-05T00:59:45;98493.22;;;0.99
73685;BMP280;61985;51.070;14.064;2023-03-05T01:02:11;98485.25;;;0.99
73685;BMP280;61985;51.070;14.064;2023-03-05T01:04:36;98489.06;;;1.02
73685;BMP280;61985;51.070;14.064;2023-03-05T01:07:02;98474.56;;;0.96
73685;BMP280;61985;51.070;14.064;2023-03-05T01:09:28;98477.31;;;0.99
73685;BMP280;61985;51.070;14.064;2023-03-05T01:11:53;98480.72;;;1.00
73685;BMP280;61985;51.070;14.064;2023-03-05T01:14:19;98470.81;;;0.97
73685;BMP280;61985;51.070;14.064;2023-03-05T01:16:45;98471.53;;;0.94
73685;BMP280;61985;51.070;14.064;2023-03-05T01:19:11;98466.97;;;0.94
73685;BMP280;61985;51.070;14.064;2023-03-05T01:21:36;98466.22;;;0.94
73685;BMP280;61985;51.070;14.064;2023-03-05T01:24:02;98466.22;;;0.94
73685;BMP280;61985;51.070;14.064;2023-03-05T01:26:28;98458.63;;;0.92
73685;BMP280;61985;51.070;14.064;2023-03-05T01:28:53;98465.38;;;0.89
73685;BMP280;61985;51.070;14.064;2023-03-05T01:31:19;98449.06;;;0.87
73685;BMP280;61985;51.070;14.064;2023-03-05T01:33:44;98457.03;;;0.87
73685;BMP280;61985;51.070;14.064;2023-03-05T01:36:12;98448.72;;;0.89
73685;BMP280;61985;51.070;14.064;2023-03-05T01:38:41;98451.72;;;0.87
73685;BMP280;61985;51.070;14.064;2023-03-05T01:41:07;98438.78;;;0.82
73685;BMP280;61985;51.070;14.064;2023-03-05T01:43:33;98442.59;;;0.85
73685;BMP280;61985;51.070;14.064;2023-03-05T01:46:25;98440.66;;;0.82
73685;BMP280;61985;51.070;14.064;2023-03-05T01:49:04;98434.63;;;0.85
73685;BMP280;61985;51.070;14.064;2023-03-05T01:51:50;98433.03;;;0.80
73685;BMP280;61985;51.070;14.064;2023-03-05T01:54:20;98434.13;;;0.76
73685;BMP280;61985;51.070;14.064;2023-03-05T01:56:47;98428.88;;;0.79
73685;BMP280;61985;51.070;14.064;2023-03-05T01:59:14;98434.91;;;0.76
73685;BMP280;61985;51.070;14.064;2023-03-05T02:01:45;98434.91;;;0.76
73685;BMP280;61985;51.070;14.064;2023-03-05T02:04:15;98437.84;;;0.71
73685;BMP280;61985;51.070;14.064;2023-03-05T02:06:42;98440.13;;;0.72
73685;BMP280;61985;51.070;14.064;2023-03-05T02:09:07;98433.31;;;0.71
73685;BMP280;61985;51.070;14.064;2023-03-05T02:11:33;98428.81;;;0.76
73685;BMP280;61985;51.070;14.064;2023-03-05T02:14:00;98427.66;;;0.73
73685;BMP280;61985;51.070;14.064;2023-03-05T02:16:27;98428.72;;;0.68
73685;BMP280;61985;51.070;14.064;2023-03-05T02:19:00;98415.00;;;0.63
73685;BMP280;61985;51.070;14.064;2023-03-05T02:21:27;98411.94;;;0.61
73685;BMP280;61985;51.070;14.064;2023-03-05T02:23:53;98410.06;;;0.61
73685;BMP280;61985;51.070;14.064;2023-03-05T02:26:18;98411.94;;;0.61
73685;BMP280;61985;51.070;14.064;2023-03-05T02:28:47;98411.94;;;0.61
73685;BMP280;61985;51.070;14.064;2023-03-05T02:31:21;98406.56;;;0.57
73685;BMP280;61985;51.070;14.064;2023-03-05T02:33:48;98413.00;;;0.56
73685;BMP280;61985;51.070;14.064;2023-03-05T02:36:14;98401.22;;;0.53
73685;BMP280;61985;51.070;14.064;2023-03-05T02:38:41;98391.69;;;0.49
73685;BMP280;61985;51.070;14.064;2023-03-05T02:41:09;98397.03;;;0.52
73685;BMP280;61985;51.070;14.064;2023-03-05T02:43:35;98399.25;;;0.47
73685;BMP280;61985;51.070;14.064;2023-03-05T02:46:01;98393.59;;;0.48
73685;BMP280;61985;51.070;14.064;2023-03-05T02:48:26;98393.50;;;0.45
73685;BMP280;61985;51.070;14.064;2023-03-05T02:50:55;98382.91;;;0.45
73685;BMP280;61985;51.070;14.064;2023-03-05T02:53:24;98390.47;;;0.43
73685;BMP280;61985;51.070;14.064;2023-03-05T02:55:50;98392.72;;;0.41
73685;BMP280;61985;51.070;14.064;2023-03-05T02:58:16;98386.94;;;0.35
73685;BMP280;61985;51.070;14.064;2023-03-05T03:00:42;98389.94;;;0.33
73685;BMP280;61985;51.070;14.064;2023-03-05T03:03:08;98388.84;;;0.34
73685;BMP280;61985;51.070;14.064;2023-03-05T03:05:34;98389.22;;;0.36
73685;BMP280;61985;51.070;14.064;2023-03-05T03:08:00;98389.56;;;0.31
73685;BMP280;61985;51.070;14.064;2023-03-05T03:10:26;98399.06;;;0.36
73685;BMP280;61985;51.070;14.064;2023-03-05T03:12:51;98387.69;;;0.32
73685;BMP280;61985;51.070;14.064;2023-03-05T03:15:17;98391.88;;;0.36
73685;BMP280;61985;51.070;14.064;2023-03-05T03:17:43;98386.91;;;0.31
73685;BMP280;61985;51.070;14.064;2023-03-05T03:20:11;98384.28;;;0.31
73685;BMP280;61985;51.070;14.064;2023-03-05T03:22:38;98383.84;;;0.29
73685;BMP280;61985;51.070;14.064;2023-03-05T03:25:04;98382.69;;;0.27
73685;BMP280;61985;51.070;14.064;2023-03-05T03:27:30;98378.84;;;0.24
73685;BMP280;61985;51.070;14.064;2023-03-05T03:29:55;98377.78;;;0.29
73685;BMP280;61985;51.070;14.064;2023-03-05T03:32:21;98372.78;;;0.24
73685;BMP280;61985;51.070;14.064;2023-03-05T03:34:46;98373.94;;;0.26
73685;BMP280;61985;51.070;14.064;2023-03-05T03:37:13;98376.91;;;0.21
73685;BMP280;61985;51.070;14.064;2023-03-05T03:39:38;98367.78;;;0.18
73685;BMP280;61985;51.070;14.064;2023-03-05T03:42:04;98374.56;;;0.16
73685;BMP280;61985;51.070;14.064;2023-03-05T03:44:30;98362.81;;;0.17
73685;BMP280;61985;51.070;14.064;2023-03-05T03:46:56;98375.72;;;0.18
73685;BMP280;61985;51.070;14.064;2023-03-05T03:49:23;98379.16;;;0.19
73685;BMP280;61985;51.070;14.064;2023-03-05T03:51:50;98367.72;;;0.15
73685;BMP280;61985;51.070;14.064;2023-03-05T03:54:17;98366.97;;;0.14
73685;BMP280;61985;51.070;14.064;2023-03-05T03:56:43;98369.31;;;0.20
73685;BMP280;61985;51.070;14.064;2023-03-05T03:59:09;98366.53;;;0.12
73685;BMP280;61985;51.070;14.064;2023-03-05T04:01:34;98365.03;;;0.11
73685;BMP280;61985;51.070;14.064;2023-03-05T04:04:00;98364.69;;;0.13
73685;BMP280;61985;51.070;14.064;2023-03-05T04:06:26;98367.72;;;0.15
73685;BMP280;61985;51.070;14.064;2023-03-05T04:08:54;98354.88;;;0.17
73685;BMP280;61985;51.070;14.064;2023-03-05T04:11:19;98349.19;;;0.15
73685;BMP280;61985;51.070;14.064;2023-03-05T04:13:45;98358.31;;;0.17
73685;BMP280;61985;51.070;14.064;2023-03-05T04:16:12;98359.78;;;0.15
73685;BMP280;61985;51.070;14.064;2023-03-05T04:18:38;98338.53;;;0.11
73685;BMP280;61985;51.070;14.064;2023-03-05T04:21:03;98351.00;;;0.11
73685;BMP280;61985;51.070;14.064;2023-03-05T04:23:29;98329.06;;;0.10
73685;BMP280;61985;51.070;14.064;2023-03-05T04:25:55;98333.88;;;0.05
73685;BMP280;61985;51.070;14.064;2023-03-05T04:28:20;98330.13;;;0.06
73685;BMP280;61985;51.070;14.064;2023-03-05T04:30:46;98343.00;;;0.07
73685;BMP280;61985;51.070;14.064;2023-03-05T04:33:11;98344.91;;;0.07
73685;BMP280;61985;51.070;14.064;2023-03-05T04:35:37;98329.75;;;0.07
73685;BMP280;61985;51.070;14.064;2023-03-05T04:38:02;98337.66;;;0.04
73685;BMP280;61985;51.070;14.064;2023-03-05T04:40:27;98331.56;;;0.03
73685;BMP280;61985;51.070;14.064;2023-03-05T04:42:53;98329.28;;;0.02
73685;BMP280;61985;51.070;14.064;2023-03-05T04:45:18;98328.56;;;0.05
73685;BMP280;61985;51.070;14.064;2023-03-05T04:47:43;98323.97;;;0.02
73685;BMP280;61985;51.070;14.064;2023-03-05T04:50:10;98317.56;;;0.03
73685;BMP280;61985;51.070;14.064;2023-03-05T04:52:43;98320.22;;;0.03
73685;BMP280;61985;51.070;14.064;2023-03-05T04:55:10;98327.06;;;0.04
73685;BMP280;61985;51.070;14.064;2023-03-05T04:57:36;98318.69;;;0.02
73685;BMP280;61985;51.070;14.064;2023-03-05T05:00:04;98314.94;;;0.03
73685;BMP280;61985;51.070;14.064;2023-03-05T05:02:35;98312.59;;;-0.03
73685;BMP280;61985;51.070;14.064;2023-03-05T05:05:01;98311.00;;;-0.07
73685;BMP280;61985;51.070;14.064;2023-03-05T05:07:26;98316.31;;;-0.07
73685;BMP280;61985;51.070;14.064;2023-03-05T05:09:51;98325.44;;;-0.05
73685;BMP280;61985;51.070;14.064;2023-03-05T05:12:17;98321.94;;;-0.09
73685;BMP280;61985;51.070;14.064;2023-03-05T05:14:42;98314.31;;;-0.14
73685;BMP280;61985;51.070;14.064;2023-03-05T05:17:08;98311.22;;;-0.16
73685;BMP280;61985;51.070;14.064;2023-03-05T05:19:34;98317.59;;;-0.21
73685;BMP280;61985;51.070;14.064;2023-03-05T05:22:00;98317.25;;;-0.19
73685;BMP280;61985;51.070;14.064;2023-03-05T05:24:26;98326.00;;;-0.15
73685;BMP280;61985;51.070;14.064;2023-03-05T05:26:55;98325.97;;;-0.19
73685;BMP280;61985;51.070;14.064;2023-03-05T05:29:20;98323.06;;;-0.10
73685;BMP280;61985;51.070;14.064;2023-03-05T05:31:49;98330.44;;;-0.23
73685;BMP280;61985;51.070;14.064;2023-03-05T05:34:15;98324.59;;;-0.32
73685;BMP280;61985;51.070;14.064;2023-03-05T05:36:40;98324.44;;;-0.39
73685;BMP280;61985;51.070;14.064;2023-03-05T05:39:06;98323.63;;;-0.43
73685;BMP280;61985;51.070;14.064;2023-03-05T05:41:31;98316.44;;;-0.43
73685;BMP280;61985;51.070;14.064;2023-03-05T05:43:56;98320.97;;;-0.43
73685;BMP280;61985;51.070;14.064;2023-03-05T05:46:22;98310.09;;;-0.38
73685;BMP280;61985;51.070;14.064;2023-03-05T05:48:48;98319.16;;;-0.39
73685;BMP280;61985;51.070;14.064;2023-03-05T05:51:19;98312.38;;;-0.37
73685;BMP280;61985;51.070;14.064;2023-03-05T05:53:45;98307.50;;;-0.34
73685;BMP280;61985;51.070;14.064;2023-03-05T05:56:12;98314.34;;;-0.33
73685;BMP280;61985;51.070;14.064;2023-03-05T05:58:39;98312.78;;;-0.34
73685;BMP280;61985;51.070;14.064;2023-03-05T06:01:31;98319.69;;;-0.30
73685;BMP280;61985;51.070;14.064;2023-03-05T06:03:57;98326.19;;;-0.27
73685;BMP280;61985;51.070;14.064;2023-03-05T06:06:24;98322.44;;;-0.26
73685;BMP280;61985;51.070;14.064;2023-03-05T06:08:50;98318.66;;;-0.25
73685;BMP280;61985;51.070;14.064;2023-03-05T06:11:16;98313.78;;;-0.23
73685;BMP280;61985;51.070;14.064;2023-03-05T06:13:42;98311.59;;;-0.17
73685;BMP280;61985;51.070;14.064;2023-03-05T06:16:10;98313.59;;;-0.11
73685;BMP280;61985;51.070;14.064;2023-03-05T06:18:36;98317.75;;;-0.10
73685;BMP280;61985;51.070;14.064;2023-03-05T06:21:04;98325.00;;;-0.07
73685;BMP280;61985;51.070;14.064;2023-03-05T06:23:29;98320.13;;;-0.05
73685;BMP280;61985;51.070;14.064;2023-03-05T06:25:58;98318.63;;;-0.02
73685;BMP280;61985;51.070;14.064;2023-03-05T06:28:24;98317.19;;;0.01
73685;BMP280;61985;51.070;14.064;2023-03-05T06:31:01;98315.63;;;-0.01
73685;BMP280;61985;51.070;14.064;2023-03-05T06:33:27;98319.47;;;0.02
73685;BMP280;61985;51.070;14.064;2023-03-05T06:35:52;98318.41;;;0.07
73685;BMP280;61985;51.070;14.064;2023-03-05T06:38:18;98315.75;;;0.07
73685;BMP280;61985;51.070;14.064;2023-03-05T06:40:43;98306.66;;;0.08
73685;BMP280;61985;51.070;14.064;2023-03-05T06:43:09;98305.97;;;0.11
73685;BMP280;61985;51.070;14.064;2023-03-05T06:45:34;98309.78;;;0.13
73685;BMP280;61985;51.070;14.064;2023-03-05T06:47:59;98312.50;;;0.17
73685;BMP280;61985;51.070;14.064;2023-03-05T06:50:25;98308.72;;;0.18
73685;BMP280;61985;51.070;14.064;2023-03-05T06:52:50;98311.03;;;0.20
73685;BMP280;61985;51.070;14.064;2023-03-05T06:55:17;98304.25;;;0.22
73685;BMP280;61985;51.070;14.064;2023-03-05T06:57:50;98308.41;;;0.23
73685;BMP280;61985;51.070;14.064;2023-03-05T07:00:15;98307.31;;;0.24
73685;BMP280;61985;51.070;14.064;2023-03-05T07:02:41;98311.53;;;0.29
73685;BMP280;61985;51.070;14.064;2023-03-05T07:05:07;98307.03;;;0.33
73685;BMP280;61985;51.070;14.064;2023-03-05T07:07:33;98305.47;;;0.28
73685;BMP280;61985;51.070;14.064;2023-03-05T07:12:49;98310.19;;;0.15
73685;BMP280;61985;51.070;14.064;2023-03-05T07:15:15;98323.66;;;0.30
73685;BMP280;61985;51.070;14.064;2023-03-05T07:17:44;98314.50;;;0.24
73685;BMP280;61985;51.070;14.064;2023-03-05T07:20:10;98312.59;;;0.24
73685;BMP280;61985;51.070;14.064;2023-03-05T07:22:36;98314.75;;;0.15
73685;BMP280;61985;51.070;14.064;2023-03-05T07:25:02;98312.41;;;0.10
73685;BMP280;61985;51.070;14.064;2023-03-05T07:27:28;98322.16;;;0.06
73685;BMP280;61985;51.070;14.064;2023-03-05T07:29:56;98316.47;;;0.04
73685;BMP280;61985;51.070;14.064;2023-03-05T07:32:22;98310.38;;;0.03
73685;BMP280;61985;51.070;14.064;2023-03-05T07:34:47;98317.56;;;0.03
73685;BMP280;61985;51.070;14.064;2023-03-05T07:37:13;98311.88;;;0.01
73685;BMP280;61985;51.070;14.064;2023-03-05T07:42:16;98311.13;;;0.00
73685;BMP280;61985;51.070;14.064;2023-03-05T07:44:41;98311.84;;;-0.03
73685;BMP280;61985;51.070;14.064;2023-03-05T07:47:07;98318.19;;;-0.08
73685;BMP280;61985;51.070;14.064;2023-03-05T07:49:32;98319.13;;;-0.20
73685;BMP280;61985;51.070;14.064;2023-03-05T07:51:57;98308.19;;;-0.18
73685;BMP280;61985;51.070;14.064;2023-03-05T07:54:23;98307.34;;;-0.22
73685;BMP280;61985;51.070;14.064;2023-03-05T07:56:48;98306.53;;;-0.26
73685;BMP280;61985;51.070;14.064;2023-03-05T07:59:16;98307.69;;;-0.24
73685;BMP280;61985;51.070;14.064;2023-03-05T08:01:41;98299.34;;;-0.26
73685;BMP280;61985;51.070;14.064;2023-03-05T08:04:07;98303.94;;;-0.23
73685;BMP280;61985;51.070;14.064;2023-03-05T08:06:38;98300.25;;;-0.18
73685;BMP280;61985;51.070;14.064;2023-03-05T08:09:04;98300.38;;;-0.11
73685;BMP280;61985;51.070;14.064;2023-03-05T08:11:29;98292.94;;;-0.02
73685;BMP280;61985;51.070;14.064;2023-03-05T08:13:55;98296.06;;;0.08
73685;BMP280;61985;51.070;14.064;2023-03-05T08:16:23;98295.38;;;0.11
73685;BMP280;61985;51.070;14.064;2023-03-05T08:18:53;98281.00;;;0.12
73685;BMP280;61985;51.070;14.064;2023-03-05T08:21:22;98281.13;;;0.19
73685;BMP280;61985;51.070;14.064;2023-03-05T08:23:48;98281.63;;;0.28
73685;BMP280;61985;51.070;14.064;2023-03-05T08:26:19;98286.59;;;0.33
73685;BMP280;61985;51.070;14.064;2023-03-05T08:28:45;98283.22;;;0.36
73685;BMP280;61985;51.070;14.064;2023-03-05T08:31:12;98277.56;;;0.38
73685;BMP280;61985;51.070;14.064;2023-03-05T08:33:38;98283.59;;;0.39
73685;BMP280;61985;51.070;14.064;2023-03-05T08:36:04;98278.31;;;0.39
73685;BMP280;61985;51.070;14.064;2023-03-05T08:38:29;98277.13;;;0.32
73685;BMP280;61985;51.070;14.064;2023-03-05T08:40:54;98280.50;;;0.29
73685;BMP280;61985;51.070;14.064;2023-03-05T08:43:20;98278.25;;;0.31
73685;BMP280;61985;51.070;14.064;2023-03-05T08:45:45;98276.72;;;0.30
73685;BMP280;61985;51.070;14.064;2023-03-05T08:48:11;98279.78;;;0.32
73685;BMP280;61985;51.070;14.064;2023-03-05T08:50:37;98275.63;;;0.35
73685;BMP280;61985;51.070;14.064;2023-03-05T08:53:02;98265.53;;;0.44
73685;BMP280;61985;51.070;14.064;2023-03-05T08:55:27;98269.75;;;0.49
73685;BMP280;61985;51.070;14.064;2023-03-05T08:57:53;98268.63;;;0.50
73685;BMP280;61985;51.070;14.064;2023-03-05T09:00:18;98264.13;;;0.54
73685;BMP280;61985;51.070;14.064;2023-03-05T09:02:44;98262.66;;;0.57
73685;BMP280;61985;51.070;14.064;2023-03-05T09:05:09;98263.41;;;0.57
73685;BMP280;61985;51.070;14.064;2023-03-05T09:07:35;98258.91;;;0.61
73685;BMP280;61985;51.070;14.064;2023-03-05T09:10:02;98257.88;;;0.69
73685;BMP280;61985;51.070;14.064;2023-03-05T09:12:27;98249.19;;;0.72
73685;BMP280;61985;51.070;14.064;2023-03-05T09:14:54;98251.47;;;0.74
73685;BMP280;61985;51.070;14.064;2023-03-05T09:17:19;98249.28;;;0.80
73685;BMP280;61985;51.070;14.064;2023-03-05T09:19:44;98253.50;;;0.84
73685;BMP280;61985;51.070;14.064;2023-03-05T09:22:10;98243.66;;;0.85
73685;BMP280;61985;51.070;14.064;2023-03-05T09:24:35;98244.19;;;0.98
73685;BMP280;61985;51.070;14.064;2023-03-05T09:27:00;98243.88;;;1.06
73685;BMP280;61985;51.070;14.064;2023-03-05T09:29:26;98243.88;;;1.06
73685;BMP280;61985;51.070;14.064;2023-03-05T09:31:53;98241.31;;;1.14
73685;BMP280;61985;51.070;14.064;2023-03-05T09:34:19;98232.34;;;1.25
73685;BMP280;61985;51.070;14.064;2023-03-05T09:36:44;98234.16;;;1.18
73685;BMP280;61985;51.070;14.064;2023-03-05T09:39:09;98240.66;;;1.24
73685;BMP280;61985;51.070;14.064;2023-03-05T09:45:15;98237.94;;;1.20
73685;BMP280;61985;51.070;14.064;2023-03-05T09:47:51;98226.72;;;0.97
73685;BMP280;61985;51.070;14.064;2023-03-05T09:50:46;98235.34;;;0.86
73685;BMP280;61985;51.070;14.064;2023-03-05T09:56:02;98233.66;;;0.71
73685;BMP280;61985;51.070;14.064;2023-03-05T09:58:34;98230.38;;;0.51
73685;BMP280;61985;51.070;14.064;2023-03-05T10:01:12;98221.28;;;0.48
73685;BMP280;61985;51.070;14.064;2023-03-05T10:03:57;98227.69;;;0.47
73685;BMP280;61985;51.070;14.064;2023-03-05T10:06:33;98223.22;;;0.51
73685;BMP280;61985;51.070;14.064;2023-03-05T10:11:58;98214.06;;;0.79
73685;BMP280;61985;51.070;14.064;2023-03-05T10:14:37;98215.88;;;1.09
73685;BMP280;61985;51.070;14.064;2023-03-05T10:19:44;98212.97;;;1.25
73685;BMP280;61985;51.070;14.064;2023-03-05T10:22:22;98192.56;;;1.36
73685;BMP280;61985;51.070;14.064;2023-03-05T10:40:46;98189.50;;;1.90
73685;BMP280;61985;51.070;14.064;2023-03-05T10:45:57;98175.97;;;2.09
73685;BMP280;61985;51.070;14.064;2023-03-05T10:56:20;98162.09;;;2.81
73685;BMP280;61985;51.070;14.064;2023-03-05T10:58:47;98165.16;;;3.22
73685;BMP280;61985;51.070;14.064;2023-03-05T11:04:02;98152.59;;;3.16
73685;BMP280;61985;51.070;14.064;2023-03-05T11:06:38;98157.94;;;3.19
73685;BMP280;61985;51.070;14.064;2023-03-05T11:14:34;98143.69;;;3.87
73685;BMP280;61985;51.070;14.064;2023-03-05T11:17:00;98127.41;;;3.56
73685;BMP280;61985;51.070;14.064;2023-03-05T11:19:31;98129.72;;;3.43
73685;BMP280;61985;51.070;14.064;2023-03-05T11:24:38;98125.94;;;3.30
73685;BMP280;61985;51.070;14.064;2023-03-05T11:27:23;98124.06;;;3.16
73685;BMP280;61985;51.070;14.064;2023-03-05T11:29:50;98125.59;;;3.10
73685;BMP280;61985;51.070;14.064;2023-03-05T11:32:23;98127.13;;;3.15
73685;BMP280;61985;51.070;14.064;2023-03-05T11:34:49;98121.00;;;3.14
73685;BMP280;61985;51.070;14.064;2023-03-05T11:37:23;98119.09;;;3.00
73685;BMP280;61985;51.070;14.064;2023-03-05T11:40:06;98122.94;;;2.99
73685;BMP280;61985;51.070;14.064;2023-03-05T11:42:39;98106.19;;;2.99
73685;BMP280;61985;51.070;14.064;2023-03-05T11:45:05;98123.31;;;2.83
73685;BMP280;61985;51.070;14.064;2023-03-05T11:53:04;98114.16;;;2.48
73685;BMP280;61985;51.070;14.064;2023-03-05T11:55:51;98113.06;;;2.60
73685;BMP280;61985;51.070;14.064;2023-03-05T11:58:34;98113.44;;;2.66
73685;BMP280;61985;51.070;14.064;2023-03-05T12:01:02;98109.22;;;2.47
73685;BMP280;61985;51.070;14.064;2023-03-05T12:03:32;98105.41;;;2.44
73685;BMP280;61985;51.070;14.064;2023-03-05T12:08:54;98105.78;;;2.32
73685;BMP280;61985;51.070;14.064;2023-03-05T12:11:24;98107.56;;;1.99
73685;BMP280;61985;51.070;14.064;2023-03-05T12:13:56;98101.81;;;1.83
73685;BMP280;61985;51.070;14.064;2023-03-05T12:16:36;98096.44;;;1.68
73685;BMP280;61985;51.070;14.064;2023-03-05T12:19:22;98097.94;;;1.66
73685;BMP280;61985;51.070;14.064;2023-03-05T12:21:53;98089.94;;;1.62
73685;BMP280;61985;51.070;14.064;2023-03-05T12:29:50;98074.88;;;1.80
73685;BMP280;61985;51.070;14.064;2023-03-05T12:34:50;98071.41;;;1.69
73685;BMP280;61985;51.070;14.064;2023-03-05T12:39:48;98059.63;;;1.67
73685;BMP280;61985;51.070;14.064;2023-03-05T12:52:57;98059.63;;;1.67
73685;BMP280;61985;51.070;14.064;2023-03-05T12:56:12;98067.19;;;1.61
73685;BMP280;61985;51.070;14.064;2023-03-05T12:58:32;98068.75;;;1.69
73685;BMP280;61985;51.070;14.064;2023-03-05T13:03:41;98073.84;;;1.30
73685;BMP280;61985;51.070;14.064;2023-03-05T13:06:23;98061.66;;;1.18
73685;BMP280;61985;51.070;14.064;2023-03-05T13:08:58;98059.75;;;1.15
73685;BMP280;61985;51.070;14.064;2023-03-05T13:11:25;98050.94;;;1.03
73685;BMP280;61985;51.070;14.064;2023-03-05T13:13:52;98052.84;;;1.03
73685;BMP280;61985;51.070;14.064;2023-03-05T13:16:23;98055.06;;;0.97
73685;BMP280;61985;51.070;14.064;2023-03-05T13:18:50;98046.38;;;1.00
73685;BMP280;61985;51.070;14.064;2023-03-05T13:21:18;98038.47;;;1.07
73685;BMP280;61985;51.070;14.064;2023-03-05T13:23:47;98038.88;;;1.13
73685;BMP280;61985;51.070;14.064;2023-03-05T13:26:15;98041.56;;;1.17
73685;BMP280;61985;51.070;14.064;2023-03-05T13:28:43;98031.69;;;1.14
73685;BMP280;61985;51.070;14.064;2023-03-05T13:31:17;98026.78;;;1.19
73685;BMP280;61985;51.070;14.064;2023-03-05T13:33:52;98027.56;;;1.23
73685;BMP280;61985;51.070;14.064;2023-03-05T13:36:19;98029.16;;;1.32
73685;BMP280;61985;51.070;14.064;2023-03-05T13:38:46;98023.88;;;1.50
73685;BMP280;61985;51.070;14.064;2023-03-05T13:43:44;98025.06;;;1.59
73685;BMP280;61985;51.070;14.064;2023-03-05T13:46:09;98015.22;;;1.63
73685;BMP280;61985;51.070;14.064;2023-03-05T13:48:35;98013.28;;;1.53
73685;BMP280;61985;51.070;14.064;2023-03-05T13:51:00;98003.81;;;1.56
73685;BMP280;61985;51.070;14.064;2023-03-05T13:53:31;98004.56;;;1.56
73685;BMP280;61985;51.070;14.064;2023-03-05T13:55:59;98001.94;;;1.63
73685;BMP280;61985;51.070;14.064;2023-03-05T14:01:34;97992.06;;;1.57
73685;BMP280;61985;51.070;14.064;2023-03-05T14:04:21;97989.78;;;1.59
73685;BMP280;61985;51.070;14.064;2023-03-05T14:06:54;97987.88;;;1.56
73685;BMP280;61985;51.070;14.064;2023-03-05T14:09:42;97976.50;;;1.59
73685;BMP280;61985;51.070;14.064;2023-03-05T14:12:27;97976.09;;;1.53
73685;BMP280;61985;51.070;14.064;2023-03-05T14:14:57;97964.34;;;1.51
73685;BMP280;61985;51.070;14.064;2023-03-05T14:17:41;97962.81;;;1.50
73685;BMP280;61985;51.070;14.064;2023-03-05T14:22:41;97960.53;;;1.48
73685;BMP280;61985;51.070;14.064;2023-03-05T14:25:29;97944.97;;;1.47
73685;BMP280;61985;51.070;14.064;2023-03-05T14:27:58;97952.56;;;1.44
73685;BMP280;61985;51.070;14.064;2023-03-05T14:30:24;97959.78;;;1.48
73685;BMP280;61985;51.070;14.064;2023-03-05T14:32:53;97955.22;;;1.44
73685;BMP280;61985;51.070;14.064;2023-03-05T14:35:22;97959.75;;;1.40
73685;BMP280;61985;51.070;14.064;2023-03-05T14:37:49;97961.28;;;1.34
73685;BMP280;61985;51.070;14.064;2023-03-05T14:40:21;97974.56;;;1.41
73685;BMP280;61985;51.070;14.064;2023-03-05T14:43:01;97975.72;;;1.48
73685;BMP280;61985;51.070;14.064;2023-03-05T14:45:29;97971.53;;;1.47
73685;BMP280;61985;51.070;14.064;2023-03-05T14:47:56;97974.94;;;1.40
73685;BMP280;61985;51.070;14.064;2023-03-05T14:50:27;97977.94;;;1.38
73685;BMP280;61985;51.070;14.064;2023-03-05T14:53:06;97975.69;;;1.40
73685;BMP280;61985;51.070;14.064;2023-03-05T14:55:31;97969.59;;;1.36
73685;BMP280;61985;51.070;14.064;2023-03-05T14:58:04;97965.81;;;1.37
73685;BMP280;61985;51.070;14.064;2023-03-05T15:00:31;97973.00;;;1.30
73685;BMP280;61985;51.070;14.064;2023-03-05T15:02:57;97966.56;;;1.31
73685;BMP280;61985;51.070;14.064;2023-03-05T15:05:23;97967.69;;;1.22
73685;BMP280;61985;51.070;14.064;2023-03-05T15:07:49;97969.22;;;1.31
73685;BMP280;61985;51.070;14.064;2023-03-05T15:10:20;97974.53;;;1.27
73685;BMP280;61985;51.070;14.064;2023-03-05T15:12:48;97971.09;;;1.26
73685;BMP280;61985;51.070;14.064;2023-03-05T15:15:15;97964.56;;;1.10
73685;BMP280;61985;51.070;14.064;2023-03-05T15:17:43;97956.22;;;1.04
73685;BMP280;61985;51.070;14.064;2023-03-05T15:20:15;97962.63;;;1.03
73685;BMP280;61985;51.070;14.064;2023-03-05T15:22:40;97971.00;;;1.08
73685;BMP280;61985;51.070;14.064;2023-03-05T15:25:06;97950.91;;;1.07
73685;BMP280;61985;51.070;14.064;2023-03-05T15:27:31;97950.91;;;1.04
73685;BMP280;61985;51.070;14.064;2023-03-05T15:29:57;97949.34;;;0.99
73685;BMP280;61985;51.070;14.064;2023-03-05T15:32:25;97943.25;;;0.95
73685;BMP280;61985;51.070;14.064;2023-03-05T15:34:52;97935.66;;;0.90
73685;BMP280;61985;51.070;14.064;2023-03-05T15:37:17;97942.09;;;0.89
73685;BMP280;61985;51.070;14.064;2023-03-05T15:39:42;97933.00;;;0.90
73685;BMP280;61985;51.070;14.064;2023-03-05T15:42:08;97941.34;;;0.92
73685;BMP280;61985;51.070;14.064;2023-03-05T15:44:33;97938.69;;;0.88
73685;BMP280;61985;51.070;14.064;2023-03-05T15:46:58;97947.78;;;0.91